sensor_id;sensor_type;location;lat;lon;timestamp;temperature;humidity
9425;DHT22;17139;52.140;11.636;2023-06-04T00:01:01;11.50;34.60
9425;DHT22;17139;52.140;11.636;2023-06-04T00:03:28;11.70;35.60
9425;DHT22;17139;52.140;11.636;2023-06-04T00:05:55;11.60;34.60
9425;DHT22;17139;52.140;11.636;2023-06-04T00:08:22;11.70;35.70
9425;DHT22;17139;52.140;11.636;2023-06-04T00:10:49;11.60;34.60
9425;DHT22;17139;52.140;11.636;2023-06-04T00:13:17;11.40;34.60
9425;DHT22;17139;52.140;11.636;2023-06-04T00:15:45;11.30;34.80
9425;DHT22;17139;52.140;11.636;2023-06-04T00:18:12;11.20;34.90
9425;DHT22;17139;52.140;11.636;2023-06-04T00:20:40;11.10;34.80
9425;DHT22;17139;52.140;11.636;2023-06-04T00:23:07;11.00;34.90
9425;DHT22;17139;52.140;11.636;2023-06-04T00:25:34;10.90;34.90
9425;DHT22;17139;52.140;11.636;2023-06-04T00:28:01;11.70;36.80
9425;DHT22;17139;52.140;11.636;2023-06-04T00:30:28;12.50;36.70
9425;DHT22;17139;52.140;11.636;2023-06-04T00:32:57;12.00;35.00
9425;DHT22;17139;52.140;11.636;2023-06-04T00:35:24;11.60;35.00
9425;DHT22;17139;52.140;11.636;2023-06-04T00:37:50;11.40;35.20
9425;DHT22;17139;52.140;11.636;2023-06-04T00:40:18;11.10;35.20
9425;DHT22;17139;52.140;11.636;2023-06-04T00:42:45;11.00;35.30
9425;DHT22;17139;52.140;11.636;2023-06-04T00:45:12;10.80;35.30
9425;DHT22;17139;52.140;11.636;2023-06-04T00:47:39;10.80;35.30
9425;DHT22;17139;52.140;11.636;2023-06-04T00:50:09;10.70;35.30
9425;DHT22;17139;52.140;11.636;2023-06-04T00:52:36;11.50;37.30
9425;DHT22;17139;52.140;11.636;2023-06-04T00:55:04;11.30;35.60
9425;DHT22;17139;52.140;11.636;2023-06-04T00:57:31;11.00;35.40
9425;DHT22;17139;52.140;11.636;2023-06-04T00:59:58;10.80;36.20
9425;DHT22;17139;52.140;11.636;2023-06-04T01:02:26;10.70;35.60
9425;DHT22;17139;52.140;11.636;2023-06-04T01:05:01;10.50;35.60
9425;DHT22;17139;52.140;11.636;2023-06-04T01:07:31;10.40;35.60
9425;DHT22;17139;52.140;11.636;2023-06-04T01:09:58;10.70;37.00
9425;DHT22;17139;52.140;11.636;2023-06-04T01:12:25;11.30;37.50
9425;DHT22;17139;52.140;11.636;2023-06-04T01:14:52;11.00;35.70
9425;DHT22;17139;52.140;11.636;2023-06-04T01:17:23;10.70;35.60
9425;DHT22;17139;52.140;11.636;2023-06-04T01:20:06;10.50;35.60
9425;DHT22;17139;52.140;11.636;2023-06-04T01:22:43;10.40;35.80
9425;DHT22;17139;52.140;11.636;2023-06-04T01:25:14;10.20;35.80
9425;DHT22;17139;52.140;11.636;2023-06-04T01:27:48;10.10;35.70
9425;DHT22;17139;52.140;11.636;2023-06-04T01:30:16;10.80;37.80
9425;DHT22;17139;52.140;11.636;2023-06-04T01:32:44;11.40;37.70
9425;DHT22;17139;52.140;11.636;2023-06-04T01:35:12;11.00;36.00
9425;DHT22;17139;52.140;11.636;2023-06-04T01:37:41;10.60;35.90
9425;DHT22;17139;52.140;11.636;2023-06-04T01:40:08;10.40;36.00
9425;DHT22;17139;52.140;11.636;2023-06-04T01:42:36;10.20;36.00
9425;DHT22;17139;52.140;11.636;2023-06-04T01:45:04;10.10;36.10
9425;DHT22;17139;52.140;11.636;2023-06-04T01:47:31;10.10;36.60
9425;DHT22;17139;52.140;11.636;2023-06-04T01:49:58;10.00;36.10
9425;DHT22;17139;52.140;11.636;2023-06-04T01:52:25;9.90;36.10
9425;DHT22;17139;52.140;11.636;2023-06-04T01:54:53;9.90;36.70
9425;DHT22;17139;52.140;11.636;2023-06-04T01:57:21;9.80;36.70
9425;DHT22;17139;52.140;11.636;2023-06-04T01:59:48;9.70;36.00
9425;DHT22;17139;52.140;11.636;2023-06-04T02:02:16;9.70;36.10
9425;DHT22;17139;52.140;11.636;2023-06-04T02:04:44;9.60;36.10
9425;DHT22;17139;52.140;11.636;2023-06-04T02:07:12;9.50;36.00
9425;DHT22;17139;52.140;11.636;2023-06-04T02:09:43;9.50;36.00
9425;DHT22;17139;52.140;11.636;2023-06-04T02:12:11;9.40;36.00
9425;DHT22;17139;52.140;11.636;2023-06-04T02:14:39;9.70;37.50
9425;DHT22;17139;52.140;11.636;2023-06-04T02:17:07;10.10;38.00
9425;DHT22;17139;52.140;11.636;2023-06-04T02:19:38;9.90;36.30
9425;DHT22;17139;52.140;11.636;2023-06-04T02:22:06;9.70;36.10
9425;DHT22;17139;52.140;11.636;2023-06-04T02:24:33;9.60;36.30
9425;DHT22;17139;52.140;11.636;2023-06-04T02:27:00;9.50;36.30
9425;DHT22;17139;52.140;11.636;2023-06-04T02:29:29;9.40;36.20
9425;DHT22;17139;52.140;11.636;2023-06-04T02:31:56;9.30;36.20
9425;DHT22;17139;52.140;11.636;2023-06-04T02:34:23;9.30;36.70
9425;DHT22;17139;52.140;11.636;2023-06-04T02:36:50;9.40;37.20
9425;DHT22;17139;52.140;11.636;2023-06-04T02:39:18;9.40;36.30
9425;DHT22;17139;52.140;11.636;2023-06-04T02:41:46;9.20;36.20
9425;DHT22;17139;52.140;11.636;2023-06-04T02:44:13;9.10;36.10
9425;DHT22;17139;52.140;11.636;2023-06-04T02:46:41;9.10;36.20
9425;DHT22;17139;52.140;11.636;2023-06-04T02:49:09;9.00;36.20
9425;DHT22;17139;52.140;11.636;2023-06-04T02:51:40;9.00;36.20
9425;DHT22;17139;52.140;11.636;2023-06-04T02:54:07;9.20;37.60
9425;DHT22;17139;52.140;11.636;2023-06-04T02:56:35;9.20;36.40
9425;DHT22;17139;52.140;11.636;2023-06-04T02:59:03;9.10;36.20
9425;DHT22;17139;52.140;11.636;2023-06-04T03:01:30;9.40;38.00
9425;DHT22;17139;52.140;11.636;2023-06-04T03:03:59;9.30;36.40
9425;DHT22;17139;52.140;11.636;2023-06-04T03:06:29;9.10;36.30
9425;DHT22;17139;52.140;11.636;2023-06-04T03:08:56;9.00;36.30
9425;DHT22;17139;52.140;11.636;2023-06-04T03:11:23;8.90;36.90
9425;DHT22;17139;52.140;11.636;2023-06-04T03:13:51;8.90;36.30
9425;DHT22;17139;52.140;11.636;2023-06-04T03:16:18;8.80;36.20
9425;DHT22;17139;52.140;11.636;2023-06-04T03:18:46;8.80;36.20
9425;DHT22;17139;52.140;11.636;2023-06-04T03:21:15;9.10;38.00
9425;DHT22;17139;52.140;11.636;2023-06-04T03:23:43;9.10;36.50
9425;DHT22;17139;52.140;11.636;2023-06-04T03:26:10;9.00;36.40
9425;DHT22;17139;52.140;11.636;2023-06-04T03:28:38;8.90;36.30
9425;DHT22;17139;52.140;11.636;2023-06-04T03:31:06;8.80;36.30
9425;DHT22;17139;52.140;11.636;2023-06-04T03:33:32;8.80;36.30
9425;DHT22;17139;52.140;11.636;2023-06-04T03:36:00;8.80;36.40
9425;DHT22;17139;52.140;11.636;2023-06-04T03:38:29;8.80;36.40
9425;DHT22;17139;52.140;11.636;2023-06-04T03:40:56;8.80;36.50
9425;DHT22;17139;52.140;11.636;2023-06-04T03:43:23;8.90;37.00
9425;DHT22;17139;52.140;11.636;2023-06-04T03:45:50;8.90;36.30
9425;DHT22;17139;52.140;11.636;2023-06-04T03:48:17;8.90;36.20
9425;DHT22;17139;52.140;11.636;2023-06-04T03:50:44;8.90;36.20
9425;DHT22;17139;52.140;11.636;2023-06-04T03:53:13;9.00;36.30
9425;DHT22;17139;52.140;11.636;2023-06-04T03:55:41;9.00;36.20
9425;DHT22;17139;52.140;11.636;2023-06-04T03:58:08;9.00;36.20
9425;DHT22;17139;52.140;11.636;2023-06-04T04:00:37;9.10;36.30
9425;DHT22;17139;52.140;11.636;2023-06-04T04:03:04;9.10;36.20
9425;DHT22;17139;52.140;11.636;2023-06-04T04:05:35;9.10;36.20
9425;DHT22;17139;52.140;11.636;2023-06-04T04:08:03;9.20;36.90
9425;DHT22;17139;52.140;11.636;2023-06-04T04:10:30;9.20;36.20
9425;DHT22;17139;52.140;11.636;2023-06-04T04:12:58;9.20;36.70
9425;DHT22;17139;52.140;11.636;2023-06-04T04:15:25;9.20;36.10
9425;DHT22;17139;52.140;11.636;2023-06-04T04:17:52;9.30;36.10
9425;DHT22;17139;52.140;11.636;2023-06-04T04:20:19;9.30;36.10
9425;DHT22;17139;52.140;11.636;2023-06-04T04:22:46;9.40;36.20
9425;DHT22;17139;52.140;11.636;2023-06-04T04:25:13;9.50;36.20
9425;DHT22;17139;52.140;11.636;2023-06-04T04:27:40;9.50;36.00
9425;DHT22;17139;52.140;11.636;2023-06-04T04:30:10;9.80;37.20
9425;DHT22;17139;52.140;11.636;2023-06-04T04:32:38;9.90;36.30
9425;DHT22;17139;52.140;11.636;2023-06-04T04:35:06;10.00;36.40
9425;DHT22;17139;52.140;11.636;2023-06-04T04:37:34;10.40;36.70
9425;DHT22;17139;52.140;11.636;2023-06-04T04:40:06;10.90;36.70
9425;DHT22;17139;52.140;11.636;2023-06-04T04:42:35;11.30;36.50
9425;DHT22;17139;52.140;11.636;2023-06-04T04:45:02;11.80;36.70
9425;DHT22;17139;52.140;11.636;2023-06-04T04:47:31;12.30;36.90
9425;DHT22;17139;52.140;11.636;2023-06-04T04:49:58;14.00;37.60
9425;DHT22;17139;52.140;11.636;2023-06-04T04:52:25;15.40;36.70
9425;DHT22;17139;52.140;11.636;2023-06-04T04:54:52;15.20;36.10
9425;DHT22;17139;52.140;11.636;2023-06-04T04:57:21;15.30;36.60
9425;DHT22;17139;52.140;11.636;2023-06-04T04:59:48;15.40;36.70
9425;DHT22;17139;52.140;11.636;2023-06-04T05:02:15;15.70;36.90
9425;DHT22;17139;52.140;11.636;2023-06-04T05:04:44;16.00;37.00
9425;DHT22;17139;52.140;11.636;2023-06-04T05:07:11;16.40;37.00
9425;DHT22;17139;52.140;11.636;2023-06-04T05:09:38;18.10;35.10
9425;DHT22;17139;52.140;11.636;2023-06-04T05:12:05;17.90;36.20
9425;DHT22;17139;52.140;11.636;2023-06-04T05:14:32;19.20;34.10
9425;DHT22;17139;52.140;11.636;2023-06-04T05:17:01;18.80;35.10
9425;DHT22;17139;52.140;11.636;2023-06-04T05:19:29;18.70;35.90
9425;DHT22;17139;52.140;11.636;2023-06-04T05:21:59;18.70;36.00
9425;DHT22;17139;52.140;11.636;2023-06-04T05:24:27;18.70;35.90
9425;DHT22;17139;52.140;11.636;2023-06-04T05:26:54;18.80;36.00
9425;DHT22;17139;52.140;11.636;2023-06-04T05:29:22;18.80;36.20
9425;DHT22;17139;52.140;11.636;2023-06-04T05:31:49;18.90;36.30
9425;DHT22;17139;52.140;11.636;2023-06-04T05:34:16;20.50;33.00
9425;DHT22;17139;52.140;11.636;2023-06-04T05:36:44;20.20;34.60
9425;DHT22;17139;52.140;11.636;2023-06-04T05:39:12;19.90;35.30
9425;DHT22;17139;52.140;11.636;2023-06-04T05:41:39;19.90;35.80
9425;DHT22;17139;52.140;11.636;2023-06-04T05:44:07;19.90;36.00
9425;DHT22;17139;52.140;11.636;2023-06-04T05:46:35;20.10;36.20
9425;DHT22;17139;52.140;11.636;2023-06-04T05:49:02;20.20;36.20
9425;DHT22;17139;52.140;11.636;2023-06-04T05:51:29;20.30;36.20
9425;DHT22;17139;52.140;11.636;2023-06-04T05:53:56;22.10;31.80
9425;DHT22;17139;52.140;11.636;2023-06-04T05:56:25;21.60;34.00
9425;DHT22;17139;52.140;11.636;2023-06-04T05:58:52;21.30;35.00
9425;DHT22;17139;52.140;11.636;2023-06-04T06:01:19;21.20;35.30
9425;DHT22;17139;52.140;11.636;2023-06-04T06:03:47;21.30;35.70
9425;DHT22;17139;52.140;11.636;2023-06-04T06:06:14;21.40;35.80
9425;DHT22;17139;52.140;11.636;2023-06-04T06:08:41;21.70;35.90
9425;DHT22;17139;52.140;11.636;2023-06-04T06:11:09;21.90;35.70
9425;DHT22;17139;52.140;11.636;2023-06-04T06:13:37;22.10;35.70
9425;DHT22;17139;52.140;11.636;2023-06-04T06:16:04;22.20;35.40
9425;DHT22;17139;52.140;11.636;2023-06-04T06:18:31;22.30;35.30
9425;DHT22;17139;52.140;11.636;2023-06-04T06:20:58;24.30;30.00
9425;DHT22;17139;52.140;11.636;2023-06-04T06:23:25;23.70;32.00
9425;DHT22;17139;52.140;11.636;2023-06-04T06:25:53;23.30;32.80
9425;DHT22;17139;52.140;11.636;2023-06-04T06:28:20;23.20;33.30
9425;DHT22;17139;52.140;11.636;2023-06-04T06:30:48;22.90;33.20
9425;DHT22;17139;52.140;11.636;2023-06-04T06:33:15;22.70;33.00
9425;DHT22;17139;52.140;11.636;2023-06-04T06:35:47;22.60;33.00
9425;DHT22;17139;52.140;11.636;2023-06-04T06:38:14;22.40;32.90
9425;DHT22;17139;52.140;11.636;2023-06-04T06:40:41;23.20;29.70
9425;DHT22;17139;52.140;11.636;2023-06-04T06:43:08;23.50;28.20
9425;DHT22;17139;52.140;11.636;2023-06-04T06:45:35;22.70;30.00
9425;DHT22;17139;52.140;11.636;2023-06-04T06:48:04;22.20;30.70
9425;DHT22;17139;52.140;11.636;2023-06-04T06:50:31;21.80;31.30
9425;DHT22;17139;52.140;11.636;2023-06-04T06:53:01;21.40;31.50
9425;DHT22;17139;52.140;11.636;2023-06-04T06:55:28;21.10;31.80
9425;DHT22;17139;52.140;11.636;2023-06-04T06:57:55;20.70;32.00
9425;DHT22;17139;52.140;11.636;2023-06-04T07:00:22;20.40;31.20
9425;DHT22;17139;52.140;11.636;2023-06-04T07:02:49;20.40;30.70
9425;DHT22;17139;52.140;11.636;2023-06-04T07:05:18;19.90;31.50
9425;DHT22;17139;52.140;11.636;2023-06-04T07:07:45;19.50;31.80
9425;DHT22;17139;52.140;11.636;2023-06-04T07:10:12;19.10;31.70
9425;DHT22;17139;52.140;11.636;2023-06-04T07:12:39;18.90;32.40
9425;DHT22;17139;52.140;11.636;2023-06-04T07:15:07;18.70;32.50
9425;DHT22;17139;52.140;11.636;2023-06-04T07:17:36;18.50;32.40
9425;DHT22;17139;52.140;11.636;2023-06-04T07:20:03;18.60;31.90
9425;DHT22;17139;52.140;11.636;2023-06-04T07:22:35;18.50;32.10
9425;DHT22;17139;52.140;11.636;2023-06-04T07:25:02;18.30;32.30
9425;DHT22;17139;52.140;11.636;2023-06-04T07:27:29;19.10;30.70
9425;DHT22;17139;52.140;11.636;2023-06-04T07:29:56;18.70;31.10
9425;DHT22;17139;52.140;11.636;2023-06-04T07:32:25;18.50;31.60
9425;DHT22;17139;52.140;11.636;2023-06-04T07:34:53;18.20;31.80
9425;DHT22;17139;52.140;11.636;2023-06-04T07:37:20;18.10;31.90
9425;DHT22;17139;52.140;11.636;2023-06-04T07:39:48;18.00;32.00
9425;DHT22;17139;52.140;11.636;2023-06-04T07:42:15;18.00;31.90
9425;DHT22;17139;52.140;11.636;2023-06-04T07:44:42;17.90;31.90
9425;DHT22;17139;52.140;11.636;2023-06-04T07:47:09;18.50;30.00
9425;DHT22;17139;52.140;11.636;2023-06-04T07:49:36;18.30;30.80
9425;DHT22;17139;52.140;11.636;2023-06-04T07:52:04;18.10;31.20
9425;DHT22;17139;52.140;11.636;2023-06-04T07:54:31;18.10;31.40
9425;DHT22;17139;52.140;11.636;2023-06-04T07:57:00;18.00;31.50
9425;DHT22;17139;52.140;11.636;2023-06-04T07:59:27;18.00;31.40
9425;DHT22;17139;52.140;11.636;2023-06-04T08:01:55;18.00;31.60
9425;DHT22;17139;52.140;11.636;2023-06-04T08:04:22;18.00;31.60
9425;DHT22;17139;52.140;11.636;2023-06-04T08:06:49;18.40;30.00
9425;DHT22;17139;52.140;11.636;2023-06-04T08:09:16;18.80;29.30
9425;DHT22;17139;52.140;11.636;2023-06-04T08:11:43;18.80;29.50
9425;DHT22;17139;52.140;11.636;2023-06-04T08:14:12;18.60;30.30
9425;DHT22;17139;52.140;11.636;2023-06-04T08:16:39;18.80;29.90
9425;DHT22;17139;52.140;11.636;2023-06-04T08:19:07;18.70;30.70
9425;DHT22;17139;52.140;11.636;2023-06-04T08:21:34;18.60;31.00
9425;DHT22;17139;52.140;11.636;2023-06-04T08:24:01;19.20;30.30
9425;DHT22;17139;52.140;11.636;2023-06-04T08:26:29;19.10;30.60
9425;DHT22;17139;52.140;11.636;2023-06-04T08:28:56;19.20;29.40
9425;DHT22;17139;52.140;11.636;2023-06-04T08:31:24;18.80;29.90
9425;DHT22;17139;52.140;11.636;2023-06-04T08:33:52;18.60;30.30
9425;DHT22;17139;52.140;11.636;2023-06-04T08:36:19;18.50;30.20
9425;DHT22;17139;52.140;11.636;2023-06-04T08:38:46;18.40;30.80
9425;DHT22;17139;52.140;11.636;2023-06-04T08:41:20;18.80;29.50
9425;DHT22;17139;52.140;11.636;2023-06-04T08:43:54;18.90;29.70
9425;DHT22;17139;52.140;11.636;2023-06-04T08:46:23;19.20;29.10
9425;DHT22;17139;52.140;11.636;2023-06-04T08:48:52;19.00;29.90
9425;DHT22;17139;52.140;11.636;2023-06-04T08:51:22;18.90;30.10
9425;DHT22;17139;52.140;11.636;2023-06-04T08:53:49;18.80;30.30
9425;DHT22;17139;52.140;11.636;2023-06-04T08:56:19;18.70;30.50
9425;DHT22;17139;52.140;11.636;2023-06-04T08:58:48;18.60;30.70
9425;DHT22;17139;52.140;11.636;2023-06-04T09:01:15;18.50;30.80
9425;DHT22;17139;52.140;11.636;2023-06-04T09:03:44;18.70;30.00
9425;DHT22;17139;52.140;11.636;2023-06-04T09:06:12;18.70;31.20
9425;DHT22;17139;52.140;11.636;2023-06-04T09:08:42;18.70;30.90
9425;DHT22;17139;52.140;11.636;2023-06-04T09:11:12;18.70;31.00
9425;DHT22;17139;52.140;11.636;2023-06-04T09:13:41;18.80;31.00
9425;DHT22;17139;52.140;11.636;2023-06-04T09:16:10;18.80;31.80
9425;DHT22;17139;52.140;11.636;2023-06-04T09:18:37;18.90;31.20
9425;DHT22;17139;52.140;11.636;2023-06-04T09:21:06;19.60;29.20
9425;DHT22;17139;52.140;11.636;2023-06-04T09:23:35;19.40;30.00
9425;DHT22;17139;52.140;11.636;2023-06-04T09:26:08;19.30;30.40
9425;DHT22;17139;52.140;11.636;2023-06-04T09:28:35;19.30;30.50
9425;DHT22;17139;52.140;11.636;2023-06-04T09:31:02;19.30;30.70
9425;DHT22;17139;52.140;11.636;2023-06-04T09:33:29;19.30;30.70
9425;DHT22;17139;52.140;11.636;2023-06-04T09:35:57;19.70;29.60
9425;DHT22;17139;52.140;11.636;2023-06-04T09:38:33;20.10;28.80
9425;DHT22;17139;52.140;11.636;2023-06-04T09:41:00;19.70;29.60
9425;DHT22;17139;52.140;11.636;2023-06-04T09:43:30;19.40;30.00
9425;DHT22;17139;52.140;11.636;2023-06-04T09:46:08;19.30;30.40
9425;DHT22;17139;52.140;11.636;2023-06-04T09:48:36;19.40;30.40
9425;DHT22;17139;52.140;11.636;2023-06-04T09:51:08;19.30;30.50
9425;DHT22;17139;52.140;11.636;2023-06-04T09:53:36;19.90;29.40
9425;DHT22;17139;52.140;11.636;2023-06-04T09:56:05;19.70;30.00
9425;DHT22;17139;52.140;11.636;2023-06-04T09:58:34;20.10;29.00
9425;DHT22;17139;52.140;11.636;2023-06-04T10:01:03;19.90;29.80
9425;DHT22;17139;52.140;11.636;2023-06-04T10:03:32;19.70;30.00
9425;DHT22;17139;52.140;11.636;2023-06-04T10:06:01;19.60;30.10
9425;DHT22;17139;52.140;11.636;2023-06-04T10:08:30;19.40;30.30
9425;DHT22;17139;52.140;11.636;2023-06-04T10:11:00;19.40;30.50
9425;DHT22;17139;52.140;11.636;2023-06-04T10:13:29;19.40;30.60
9425;DHT22;17139;52.140;11.636;2023-06-04T10:15:57;20.10;29.10
9425;DHT22;17139;52.140;11.636;2023-06-04T10:18:27;19.80;29.80
9425;DHT22;17139;52.140;11.636;2023-06-04T10:20:55;19.60;30.10
9425;DHT22;17139;52.140;11.636;2023-06-04T10:23:23;19.60;30.30
9425;DHT22;17139;52.140;11.636;2023-06-04T10:25:50;19.60;30.40
9425;DHT22;17139;52.140;11.636;2023-06-04T10:28:22;19.60;30.40
9425;DHT22;17139;52.140;11.636;2023-06-04T10:30:49;19.60;30.40
9425;DHT22;17139;52.140;11.636;2023-06-04T10:33:18;19.80;29.40
9425;DHT22;17139;52.140;11.636;2023-06-04T10:35:50;20.10;29.50
9425;DHT22;17139;52.140;11.636;2023-06-04T10:38:17;19.90;29.80
9425;DHT22;17139;52.140;11.636;2023-06-04T10:40:46;19.70;30.00
9425;DHT22;17139;52.140;11.636;2023-06-04T10:43:14;19.60;30.10
9425;DHT22;17139;52.140;11.636;2023-06-04T10:45:44;19.60;30.40
9425;DHT22;17139;52.140;11.636;2023-06-04T10:48:12;19.40;30.20
9425;DHT22;17139;52.140;11.636;2023-06-04T10:50:50;19.60;30.00
9425;DHT22;17139;52.140;11.636;2023-06-04T10:53:17;20.30;28.90
9425;DHT22;17139;52.140;11.636;2023-06-04T10:55:47;20.30;29.20
9425;DHT22;17139;52.140;11.636;2023-06-04T10:58:14;20.20;29.70
9425;DHT22;17139;52.140;11.636;2023-06-04T11:00:44;20.20;30.00
9425;DHT22;17139;52.140;11.636;2023-06-04T11:03:14;20.20;30.00
9425;DHT22;17139;52.140;11.636;2023-06-04T11:05:42;20.10;30.10
9425;DHT22;17139;52.140;11.636;2023-06-04T11:08:10;20.20;30.30
9425;DHT22;17139;52.140;11.636;2023-06-04T11:10:40;20.20;30.20
9425;DHT22;17139;52.140;11.636;2023-06-04T11:13:07;20.60;29.10
9425;DHT22;17139;52.140;11.636;2023-06-04T11:15:41;21.00;28.50
9425;DHT22;17139;52.140;11.636;2023-06-04T11:18:13;21.10;28.10
9425;DHT22;17139;52.140;11.636;2023-06-04T11:20:41;20.70;29.10
9425;DHT22;17139;52.140;11.636;2023-06-04T11:23:11;20.50;29.60
9425;DHT22;17139;52.140;11.636;2023-06-04T11:25:39;20.40;29.80
9425;DHT22;17139;52.140;11.636;2023-06-04T11:28:08;20.90;28.60
9425;DHT22;17139;52.140;11.636;2023-06-04T11:30:41;21.40;28.50
9425;DHT22;17139;52.140;11.636;2023-06-04T11:33:08;21.00;29.30
9425;DHT22;17139;52.140;11.636;2023-06-04T11:35:41;21.10;29.00
9425;DHT22;17139;52.140;11.636;2023-06-04T11:38:09;21.40;28.30
9425;DHT22;17139;52.140;11.636;2023-06-04T11:40:36;21.00;29.20
9425;DHT22;17139;52.140;11.636;2023-06-04T11:43:03;20.90;29.60
9425;DHT22;17139;52.140;11.636;2023-06-04T11:45:30;20.80;29.80
9425;DHT22;17139;52.140;11.636;2023-06-04T11:47:58;20.70;29.80
9425;DHT22;17139;52.140;11.636;2023-06-04T11:50:27;20.70;29.90
9425;DHT22;17139;52.140;11.636;2023-06-04T11:52:56;20.90;29.40
9425;DHT22;17139;52.140;11.636;2023-06-04T11:55:23;20.80;29.70
9425;DHT22;17139;52.140;11.636;2023-06-04T11:57:50;20.70;29.90
9425;DHT22;17139;52.140;11.636;2023-06-04T12:00:18;20.60;30.00
9425;DHT22;17139;52.140;11.636;2023-06-04T12:02:51;20.60;30.10
9425;DHT22;17139;52.140;11.636;2023-06-04T12:05:20;20.60;30.00
9425;DHT22;17139;52.140;11.636;2023-06-04T12:07:49;20.60;30.10
9425;DHT22;17139;52.140;11.636;2023-06-04T12:10:19;21.30;28.60
9425;DHT22;17139;52.140;11.636;2023-06-04T12:12:46;21.80;28.00
9425;DHT22;17139;52.140;11.636;2023-06-04T12:15:19;21.40;28.90
9425;DHT22;17139;52.140;11.636;2023-06-04T12:17:49;21.10;29.20
9425;DHT22;17139;52.140;11.636;2023-06-04T12:20:17;20.90;29.60
9425;DHT22;17139;52.140;11.636;2023-06-04T12:22:45;20.80;29.80
9425;DHT22;17139;52.140;11.636;2023-06-04T12:25:25;20.80;29.90
9425;DHT22;17139;52.140;11.636;2023-06-04T12:27:53;21.60;28.50
9425;DHT22;17139;52.140;11.636;2023-06-04T12:30:20;21.70;28.00
9425;DHT22;17139;52.140;11.636;2023-06-04T12:32:48;21.50;28.90
9425;DHT22;17139;52.140;11.636;2023-06-04T12:35:16;21.40;29.50
9425;DHT22;17139;52.140;11.636;2023-06-04T12:37:43;21.30;29.50
9425;DHT22;17139;52.140;11.636;2023-06-04T12:40:11;21.20;29.70
9425;DHT22;17139;52.140;11.636;2023-06-04T12:42:40;21.20;29.70
9425;DHT22;17139;52.140;11.636;2023-06-04T12:45:09;21.20;29.10
9425;DHT22;17139;52.140;11.636;2023-06-04T12:47:37;21.40;28.80
9425;DHT22;17139;52.140;11.636;2023-06-04T12:50:05;21.20;29.30
9425;DHT22;17139;52.140;11.636;2023-06-04T12:52:32;21.10;29.60
9425;DHT22;17139;52.140;11.636;2023-06-04T12:54:59;21.00;29.70
9425;DHT22;17139;52.140;11.636;2023-06-04T12:57:26;20.90;29.60
9425;DHT22;17139;52.140;11.636;2023-06-04T12:59:54;20.90;29.70
9425;DHT22;17139;52.140;11.636;2023-06-04T13:02:22;20.90;30.10
9425;DHT22;17139;52.140;11.636;2023-06-04T13:04:49;20.90;29.80
9425;DHT22;17139;52.140;11.636;2023-06-04T13:07:21;21.00;29.90
9425;DHT22;17139;52.140;11.636;2023-06-04T13:09:48;21.50;28.20
9425;DHT22;17139;52.140;11.636;2023-06-04T13:12:15;21.40;29.70
9425;DHT22;17139;52.140;11.636;2023-06-04T13:14:42;21.30;29.50
9425;DHT22;17139;52.140;11.636;2023-06-04T13:17:11;21.30;29.50
9425;DHT22;17139;52.140;11.636;2023-06-04T13:19:37;21.30;29.70
9425;DHT22;17139;52.140;11.636;2023-06-04T13:22:05;21.40;29.70
9425;DHT22;17139;52.140;11.636;2023-06-04T13:24:32;21.40;29.70
9425;DHT22;17139;52.140;11.636;2023-06-04T13:26:58;22.00;27.90
9425;DHT22;17139;52.140;11.636;2023-06-04T13:29:26;21.90;28.90
9425;DHT22;17139;52.140;11.636;2023-06-04T13:31:53;21.70;29.10
9425;DHT22;17139;52.140;11.636;2023-06-04T13:34:21;21.70;29.30
9425;DHT22;17139;52.140;11.636;2023-06-04T13:36:48;21.70;29.40
9425;DHT22;17139;52.140;11.636;2023-06-04T13:39:15;21.60;29.40
9425;DHT22;17139;52.140;11.636;2023-06-04T13:41:42;21.60;29.60
9425;DHT22;17139;52.140;11.636;2023-06-04T13:44:09;21.70;29.10
9425;DHT22;17139;52.140;11.636;2023-06-04T13:46:36;21.80;28.70
9425;DHT22;17139;52.140;11.636;2023-06-04T13:49:03;21.70;29.10
9425;DHT22;17139;52.140;11.636;2023-06-04T13:51:32;21.60;29.40
9425;DHT22;17139;52.140;11.636;2023-06-04T13:53:59;21.50;29.20
9425;DHT22;17139;52.140;11.636;2023-06-04T13:56:26;21.40;29.40
9425;DHT22;17139;52.140;11.636;2023-06-04T13:58:53;21.40;29.60
9425;DHT22;17139;52.140;11.636;2023-06-04T14:01:20;21.40;29.70
9425;DHT22;17139;52.140;11.636;2023-06-04T14:03:47;21.50;29.70
9425;DHT22;17139;52.140;11.636;2023-06-04T14:06:14;21.80;28.10
9425;DHT22;17139;52.140;11.636;2023-06-04T14:08:42;21.60;29.50
9425;DHT22;17139;52.140;11.636;2023-06-04T14:11:09;21.40;29.10
9425;DHT22;17139;52.140;11.636;2023-06-04T14:13:37;21.30;29.40
9425;DHT22;17139;52.140;11.636;2023-06-04T14:16:06;21.40;29.60
9425;DHT22;17139;52.140;11.636;2023-06-04T14:18:33;21.40;29.60
9425;DHT22;17139;52.140;11.636;2023-06-04T14:21:00;21.50;29.50
9425;DHT22;17139;52.140;11.636;2023-06-04T14:23:27;21.60;29.30
9425;DHT22;17139;52.140;11.636;2023-06-04T14:25:56;21.60;29.40
9425;DHT22;17139;52.140;11.636;2023-06-04T14:28:23;21.70;29.40
9425;DHT22;17139;52.140;11.636;2023-06-04T14:30:50;21.70;29.60
9425;DHT22;17139;52.140;11.636;2023-06-04T14:33:17;21.70;29.50
9425;DHT22;17139;52.140;11.636;2023-06-04T14:35:44;21.70;29.50
9425;DHT22;17139;52.140;11.636;2023-06-04T14:38:12;21.70;29.60
9425;DHT22;17139;52.140;11.636;2023-06-04T14:40:40;22.20;27.80
9425;DHT22;17139;52.140;11.636;2023-06-04T14:43:10;22.00;28.80
9425;DHT22;17139;52.140;11.636;2023-06-04T14:45:37;22.20;27.60
9425;DHT22;17139;52.140;11.636;2023-06-04T14:48:05;21.90;28.50
9425;DHT22;17139;52.140;11.636;2023-06-04T14:50:32;21.80;29.00
9425;DHT22;17139;52.140;11.636;2023-06-04T14:52:59;21.70;29.00
9425;DHT22;17139;52.140;11.636;2023-06-04T14:55:27;21.60;29.30
9425;DHT22;17139;52.140;11.636;2023-06-04T14:57:54;21.60;29.40
9425;DHT22;17139;52.140;11.636;2023-06-04T15:00:22;21.60;29.40
9425;DHT22;17139;52.140;11.636;2023-06-04T15:02:49;22.00;27.90
9425;DHT22;17139;52.140;11.636;2023-06-04T15:05:16;22.50;27.30
9425;DHT22;17139;52.140;11.636;2023-06-04T15:07:43;22.10;28.30
9425;DHT22;17139;52.140;11.636;2023-06-04T15:10:10;22.00;28.70
9425;DHT22;17139;52.140;11.636;2023-06-04T15:12:37;21.90;29.00
9425;DHT22;17139;52.140;11.636;2023-06-04T15:15:06;21.80;29.10
9425;DHT22;17139;52.140;11.636;2023-06-04T15:17:35;21.90;29.20
9425;DHT22;17139;52.140;11.636;2023-06-04T15:20:02;21.90;29.30
9425;DHT22;17139;52.140;11.636;2023-06-04T15:22:29;22.70;27.20
9425;DHT22;17139;52.140;11.636;2023-06-04T15:24:56;22.70;27.10
9425;DHT22;17139;52.140;11.636;2023-06-04T15:27:23;22.40;28.10
9425;DHT22;17139;52.140;11.636;2023-06-04T15:29:50;22.10;28.50
9425;DHT22;17139;52.140;11.636;2023-06-04T15:32:17;21.90;28.70
9425;DHT22;17139;52.140;11.636;2023-06-04T15:34:46;21.80;29.10
9425;DHT22;17139;52.140;11.636;2023-06-04T15:37:13;21.90;29.10